sensor_id;sensor_type;location;lat;lon;timestamp;pressure;altitude;pressure_sealevel;temperature;humidity
73628;BME280;61923;51.846;5.856;2023-02-12T00:01:36;103734.66;;;14.70;63.65
73628;BME280;61923;51.846;5.856;2023-02-12T00:04:02;103728.59;;;14.70;63.81
73628;BME280;61923;51.846;5.856;2023-02-12T00:06:28;103732.63;;;14.76;64.17
73628;BME280;61923;51.846;5.856;2023-02-12T00:08:55;103739.06;;;14.70;64.06
73628;BME280;61923;51.846;5.856;2023-02-12T00:11:23;103718.69;;;14.59;63.99
73628;BME280;61923;51.846;5.856;2023-02-12T00:13:49;103739.88;;;14.70;63.92
73628;BME280;61923;51.846;5.856;2023-02-12T00:16:17;103737.28;;;14.70;64.06
73628;BME280;61923;51.846;5.856;2023-02-12T00:18:44;103739.81;;;14.72;63.98
73628;BME280;61923;51.846;5.856;2023-02-12T00:21:09;103733.22;;;14.65;63.91
73628;BME280;61923;51.846;5.856;2023-02-12T00:23:37;103732.13;;;14.69;63.85
73628;BME280;61923;51.846;5.856;2023-02-12T00:26:07;103736.59;;;14.67;64.23
73628;BME280;61923;51.846;5.856;2023-02-12T00:28:33;103742.84;;;14.64;64.20
73628;BME280;61923;51.846;5.856;2023-02-12T00:31:03;103737.34;;;14.69;64.16
73628;BME280;61923;51.846;5.856;2023-02-12T00:33:29;103745.38;;;14.66;64.53
73628;BME280;61923;51.846;5.856;2023-02-12T00:35:55;103729.97;;;14.60;64.42
73628;BME280;61923;51.846;5.856;2023-02-12T00:38:21;103744.34;;;14.68;64.37
73628;BME280;61923;51.846;5.856;2023-02-12T00:40:46;103722.44;;;14.53;64.51
73628;BME280;61923;51.846;5.856;2023-02-12T00:43:12;103739.13;;;14.68;64.45
73628;BME280;61923;51.846;5.856;2023-02-12T00:45:37;103740.16;;;14.66;64.73
73628;BME280;61923;51.846;5.856;2023-02-12T00:48:03;103736.66;;;14.65;64.56
73628;BME280;61923;51.846;5.856;2023-02-12T00:50:28;103735.00;;;14.64;64.77
73628;BME280;61923;51.846;5.856;2023-02-12T00:52:54;103738.38;;;14.66;64.72
73628;BME280;61923;51.846;5.856;2023-02-12T00:55:19;103736.59;;;14.67;64.96
73628;BME280;61923;51.846;5.856;2023-02-12T00:57:45;103737.53;;;14.66;64.97
73628;BME280;61923;51.846;5.856;2023-02-12T01:00:11;103728.81;;;14.65;65.10
73628;BME280;61923;51.846;5.856;2023-02-12T01:02:37;103727.97;;;14.65;64.87
73628;BME280;61923;51.846;5.856;2023-02-12T01:05:03;103729.84;;;14.63;65.25
73628;BME280;61923;51.846;5.856;2023-02-12T01:07:28;103742.00;;;14.64;65.43
73628;BME280;61923;51.846;5.856;2023-02-12T01:09:54;103737.41;;;14.67;65.35
73628;BME280;61923;51.846;5.856;2023-02-12T01:12:19;103740.97;;;14.66;65.42
73628;BME280;61923;51.846;5.856;2023-02-12T01:14:44;103736.75;;;14.64;65.59
73628;BME280;61923;51.846;5.856;2023-02-12T01:17:10;103727.97;;;14.65;65.74
73628;BME280;61923;51.846;5.856;2023-02-12T01:19:35;103729.84;;;14.63;65.54
73628;BME280;61923;51.846;5.856;2023-02-12T01:22:00;103733.28;;;14.63;65.93
73628;BME280;61923;51.846;5.856;2023-02-12T01:24:26;103735.97;;;14.62;65.58
73628;BME280;61923;51.846;5.856;2023-02-12T01:26:51;103740.03;;;14.67;65.81
73628;BME280;61923;51.846;5.856;2023-02-12T01:29:16;103733.91;;;14.68;65.87
73628;BME280;61923;51.846;5.856;2023-02-12T01:31:42;103734.91;;;14.66;65.99
73628;BME280;61923;51.846;5.856;2023-02-12T01:34:09;103735.75;;;14.66;65.82
73628;BME280;61923;51.846;5.856;2023-02-12T01:36:35;103731.53;;;14.64;66.08
73628;BME280;61923;51.846;5.856;2023-02-12T01:39:01;103733.22;;;14.65;65.94
73628;BME280;61923;51.846;5.856;2023-02-12T01:41:39;103729.84;;;14.63;66.17
73628;BME280;61923;51.846;5.856;2023-02-12T01:44:07;103739.97;;;14.69;66.09
73628;BME280;61923;51.846;5.856;2023-02-12T01:46:32;103730.59;;;14.65;66.12
73628;BME280;61923;51.846;5.856;2023-02-12T01:48:58;103738.28;;;14.68;66.22
73628;BME280;61923;51.846;5.856;2023-02-12T01:51:24;103735.75;;;14.66;66.39
73628;BME280;61923;51.846;5.856;2023-02-12T01:53:53;103736.66;;;14.65;66.24
73628;BME280;61923;51.846;5.856;2023-02-12T01:56:20;103734.03;;;14.65;66.63
73628;BME280;61923;51.846;5.856;2023-02-12T01:58:50;103733.28;;;14.63;66.40
73628;BME280;61923;51.846;5.856;2023-02-12T02:01:19;103729.84;;;14.63;66.49
73628;BME280;61923;51.846;5.856;2023-02-12T02:03:49;103734.22;;;14.62;66.46
73628;BME280;61923;51.846;5.856;2023-02-12T02:06:22;103723.06;;;14.59;66.62
73628;BME280;61923;51.846;5.856;2023-02-12T02:08:50;103731.53;;;14.64;66.63
73628;BME280;61923;51.846;5.856;2023-02-12T02:11:15;103730.66;;;14.63;66.55
73628;BME280;61923;51.846;5.856;2023-02-12T02:14:00;103728.91;;;14.64;66.63
73628;BME280;61923;51.846;5.856;2023-02-12T02:16:53;103707.84;;;14.49;66.49
73628;BME280;61923;51.846;5.856;2023-02-12T02:22:27;103725.50;;;14.62;66.84
73628;BME280;61923;51.846;5.856;2023-02-12T02:38:22;103724.28;;;14.69;67.02
73628;BME280;61923;51.846;5.856;2023-02-12T02:41:10;103711.25;;;14.67;67.33
73628;BME280;61923;51.846;5.856;2023-02-12T02:43:43;103713.13;;;14.65;67.43
73628;BME280;61923;51.846;5.856;2023-02-12T02:46:22;103710.50;;;14.65;67.42
73628;BME280;61923;51.846;5.856;2023-02-12T02:48:54;103703.69;;;14.63;67.50
73628;BME280;61923;51.846;5.856;2023-02-12T02:51:29;103709.75;;;14.63;67.38
73628;BME280;61923;51.846;5.856;2023-02-12T02:54:15;103713.22;;;14.64;67.33
73628;BME280;61923;51.846;5.856;2023-02-12T02:56:45;103701.81;;;14.65;67.22
73628;BME280;61923;51.846;5.856;2023-02-12T02:59:35;103700.03;;;14.65;67.38
73628;BME280;61923;51.846;5.856;2023-02-12T03:02:14;103695.69;;;14.66;67.29
73628;BME280;61923;51.846;5.856;2023-02-12T03:04:45;103694.91;;;14.64;67.42
73628;BME280;61923;51.846;5.856;2023-02-12T03:10:01;103690.28;;;14.51;67.71
73628;BME280;61923;51.846;5.856;2023-02-12T03:13:07;103702.84;;;14.62;67.58
73628;BME280;61923;51.846;5.856;2023-02-12T03:15:38;103698.59;;;14.60;67.70
73628;BME280;61923;51.846;5.856;2023-02-12T03:18:10;103700.22;;;14.62;67.87
73628;BME280;61923;51.846;5.856;2023-02-12T03:20:50;103706.22;;;14.64;67.92
73628;BME280;61923;51.846;5.856;2023-02-12T03:23:22;103698.28;;;14.66;68.04
73628;BME280;61923;51.846;5.856;2023-02-12T03:26:03;103693.22;;;14.63;67.95
73628;BME280;61923;51.846;5.856;2023-02-12T03:28:32;103699.28;;;14.63;68.06
73628;BME280;61923;51.846;5.856;2023-02-12T03:36:41;103711.94;;;14.71;68.22
73628;BME280;61923;51.846;5.856;2023-02-12T03:42:10;103703.34;;;14.69;68.34
73628;BME280;61923;51.846;5.856;2023-02-12T03:45:00;103703.34;;;14.69;68.44
73628;BME280;61923;51.846;5.856;2023-02-12T03:48:01;103709.41;;;14.69;68.28
73628;BME280;61923;51.846;5.856;2023-02-12T03:50:41;103712.88;;;14.70;68.44
73628;BME280;61923;51.846;5.856;2023-02-12T03:53:08;103712.13;;;14.68;68.69
73628;BME280;61923;51.846;5.856;2023-02-12T03:55:35;103710.44;;;14.67;68.54
73628;BME280;61923;51.846;5.856;2023-02-12T03:58:08;103712.28;;;14.65;68.45
73628;BME280;61923;51.846;5.856;2023-02-12T04:00:36;103714.06;;;14.64;68.66
73628;BME280;61923;51.846;5.856;2023-02-12T04:03:03;103704.38;;;14.66;68.82
73628;BME280;61923;51.846;5.856;2023-02-12T04:05:29;103710.44;;;14.67;68.59
73628;BME280;61923;51.846;5.856;2023-02-12T04:07:56;103714.00;;;14.66;68.74
73628;BME280;61923;51.846;5.856;2023-02-12T04:10:36;103714.81;;;14.66;68.79
73628;BME280;61923;51.846;5.856;2023-02-12T04:13:20;103726.13;;;14.67;69.09
73628;BME280;61923;51.846;5.856;2023-02-12T04:18:41;103719.03;;;14.69;68.91
73628;BME280;61923;51.846;5.856;2023-02-12T04:24:12;103740.72;;;14.71;68.77
73628;BME280;61923;51.846;5.856;2023-02-12T04:26:52;103741.66;;;14.70;68.90
73628;BME280;61923;51.846;5.856;2023-02-12T04:29:35;103723.00;;;14.60;68.97
73628;BME280;61923;51.846;5.856;2023-02-12T04:32:15;103744.34;;;14.68;68.97
73628;BME280;61923;51.846;5.856;2023-02-12T04:35:01;103743.66;;;14.65;69.09
73628;BME280;61923;51.846;5.856;2023-02-12T04:37:52;103746.22;;;14.66;69.22
73628;BME280;61923;51.846;5.856;2023-02-12T04:40:20;103751.66;;;14.62;69.20
73628;BME280;61923;51.846;5.856;2023-02-12T04:42:48;103750.75;;;14.63;69.21
73628;BME280;61923;51.846;5.856;2023-02-12T04:45:18;103746.69;;;14.57;69.50
73628;BME280;61923;51.846;5.856;2023-02-12T04:47:45;103758.47;;;14.66;69.46
73628;BME280;61923;51.846;5.856;2023-02-12T04:50:11;103739.84;;;14.54;69.43
73628;BME280;61923;51.846;5.856;2023-02-12T04:52:37;103745.84;;;14.57;69.54
73628;BME280;61923;51.846;5.856;2023-02-12T04:55:02;103765.44;;;14.65;69.61
73628;BME280;61923;51.846;5.856;2023-02-12T04:57:28;103757.69;;;14.64;69.90
73628;BME280;61923;51.846;5.856;2023-02-12T04:59:53;103755.06;;;14.64;69.70
73628;BME280;61923;51.846;5.856;2023-02-12T05:02:18;103750.69;;;14.64;69.47
73628;BME280;61923;51.846;5.856;2023-02-12T05:04:44;103745.53;;;14.63;69.61
73628;BME280;61923;51.846;5.856;2023-02-12T05:07:10;103747.53;;;14.58;69.53
73628;BME280;61923;51.846;5.856;2023-02-12T05:09:36;103747.44;;;14.59;69.55
73628;BME280;61923;51.846;5.856;2023-02-12T05:12:01;103757.50;;;14.67;69.71
73628;BME280;61923;51.846;5.856;2023-02-12T05:14:27;103761.72;;;14.69;69.62
73628;BME280;61923;51.846;5.856;2023-02-12T05:16:52;103752.28;;;14.67;69.48
73628;BME280;61923;51.846;5.856;2023-02-12T05:19:18;103751.44;;;14.66;69.57
73628;BME280;61923;51.846;5.856;2023-02-12T05:21:43;103758.34;;;14.67;69.75
73628;BME280;61923;51.846;5.856;2023-02-12T05:24:08;103760.31;;;14.64;69.71
73628;BME280;61923;51.846;5.856;2023-02-12T05:26:35;103749.84;;;14.64;69.76
73628;BME280;61923;51.846;5.856;2023-02-12T05:29:01;103761.81;;;14.68;69.82
73628;BME280;61923;51.846;5.856;2023-02-12T05:31:27;103756.75;;;14.65;69.62
73628;BME280;61923;51.846;5.856;2023-02-12T05:33:53;103764.59;;;14.65;69.95
73628;BME280;61923;51.846;5.856;2023-02-12T05:36:21;103762.06;;;14.63;70.00
73628;BME280;61923;51.846;5.856;2023-02-12T05:38:47;103767.97;;;14.67;69.72
73628;BME280;61923;51.846;5.856;2023-02-12T05:41:18;103764.59;;;14.65;69.75
73628;BME280;61923;51.846;5.856;2023-02-12T05:43:44;103754.59;;;14.55;69.76
73628;BME280;61923;51.846;5.856;2023-02-12T05:46:11;103758.00;;;14.58;69.78
73628;BME280;61923;51.846;5.856;2023-02-12T05:48:36;103759.50;;;14.62;69.77
73628;BME280;61923;51.846;5.856;2023-02-12T05:51:14;103756.25;;;14.58;69.61
73628;BME280;61923;51.846;5.856;2023-02-12T05:53:40;103767.22;;;14.65;69.80
73628;BME280;61923;51.846;5.856;2023-02-12T05:56:12;103767.22;;;14.65;69.57
73628;BME280;61923;51.846;5.856;2023-02-12T05:58:39;103760.19;;;14.65;69.72
73628;BME280;61923;51.846;5.856;2023-02-12T06:01:09;103761.16;;;14.64;69.64
73628;BME280;61923;51.846;5.856;2023-02-12T06:03:35;103762.81;;;14.65;69.99
73628;BME280;61923;51.846;5.856;2023-02-12T06:06:00;103765.44;;;14.65;69.95
73628;BME280;61923;51.846;5.856;2023-02-12T06:08:26;103770.66;;;14.65;69.78
73628;BME280;61923;51.846;5.856;2023-02-12T06:10:51;103775.91;;;14.65;69.83
73628;BME280;61923;51.846;5.856;2023-02-12T06:13:16;103771.53;;;14.66;69.83
73628;BME280;61923;51.846;5.856;2023-02-12T06:15:42;103769.75;;;14.66;69.94
73628;BME280;61923;51.846;5.856;2023-02-12T06:18:07;103772.44;;;14.65;70.05
73628;BME280;61923;51.846;5.856;2023-02-12T06:20:33;103773.38;;;14.64;70.12
73628;BME280;61923;51.846;5.856;2023-02-12T06:22:58;103780.28;;;14.65;69.86
73628;BME280;61923;51.846;5.856;2023-02-12T06:25:23;103778.63;;;14.64;69.94
73628;BME280;61923;51.846;5.856;2023-02-12T06:27:49;103771.69;;;14.63;69.99
73628;BME280;61923;51.846;5.856;2023-02-12T06:30:14;103775.22;;;14.62;70.02
73628;BME280;61923;51.846;5.856;2023-02-12T06:32:40;103782.97;;;14.63;69.82
73628;BME280;61923;51.846;5.856;2023-02-12T06:35:05;103781.22;;;14.64;70.05
73628;BME280;61923;51.846;5.856;2023-02-12T06:37:31;103784.75;;;14.63;69.93
73628;BME280;61923;51.846;5.856;2023-02-12T06:39:56;103777.16;;;14.58;69.80
73628;BME280;61923;51.846;5.856;2023-02-12T06:42:22;103786.47;;;14.64;70.08
73628;BME280;61923;51.846;5.856;2023-02-12T06:44:47;103789.06;;;14.64;70.05
73628;BME280;61923;51.846;5.856;2023-02-12T06:47:13;103789.06;;;14.64;70.18
73628;BME280;61923;51.846;5.856;2023-02-12T06:49:38;103789.16;;;14.62;70.12
73628;BME280;61923;51.846;5.856;2023-02-12T06:52:03;103787.22;;;14.66;70.39
73628;BME280;61923;51.846;5.856;2023-02-12T06:54:29;103794.06;;;14.68;70.34
73628;BME280;61923;51.846;5.856;2023-02-12T06:56:54;103792.13;;;14.72;69.85
73628;BME280;61923;51.846;5.856;2023-02-12T06:59:20;103787.03;;;14.69;69.93
73628;BME280;61923;51.846;5.856;2023-02-12T07:01:45;103791.25;;;14.71;70.08
73628;BME280;61923;51.846;5.856;2023-02-12T07:04:11;103793.81;;;14.73;70.15
73628;BME280;61923;51.846;5.856;2023-02-12T07:06:42;103790.44;;;14.71;70.10
73628;BME280;61923;51.846;5.856;2023-02-12T07:09:07;103798.28;;;14.71;70.24
73628;BME280;61923;51.846;5.856;2023-02-12T07:11:34;103798.28;;;14.71;70.18
73628;BME280;61923;51.846;5.856;2023-02-12T07:13:59;103790.91;;;14.62;70.36
73628;BME280;61923;51.846;5.856;2023-02-12T07:16:26;103805.22;;;14.72;70.29
73628;BME280;61923;51.846;5.856;2023-02-12T07:18:52;103808.72;;;14.71;70.18
73628;BME280;61923;51.846;5.856;2023-02-12T07:21:18;103814.72;;;14.73;70.30
73628;BME280;61923;51.846;5.856;2023-02-12T07:23:47;103809.50;;;14.73;70.15
73628;BME280;61923;51.846;5.856;2023-02-12T07:26:14;103806.94;;;14.71;70.28
73628;BME280;61923;51.846;5.856;2023-02-12T07:28:40;103813.88;;;14.72;70.19
73628;BME280;61923;51.846;5.856;2023-02-12T07:31:23;103813.81;;;14.74;70.04
73628;BME280;61923;51.846;5.856;2023-02-12T07:33:53;103812.03;;;14.74;70.17
73628;BME280;61923;51.846;5.856;2023-02-12T07:36:20;103793.38;;;14.65;70.09
73628;BME280;61923;51.846;5.856;2023-02-12T07:38:46;103819.81;;;14.76;69.71
73628;BME280;61923;51.846;5.856;2023-02-12T07:41:14;103824.09;;;14.77;69.70
73628;BME280;61923;51.846;5.856;2023-02-12T07:43:41;103820.31;;;14.83;68.79
73628;BME280;61923;51.846;5.856;2023-02-12T07:46:18;103824.47;;;14.87;68.33
73628;BME280;61923;51.846;5.856;2023-02-12T07:48:45;103822.78;;;14.86;68.63
73628;BME280;61923;51.846;5.856;2023-02-12T07:51:11;103828.94;;;14.85;68.54
73628;BME280;61923;51.846;5.856;2023-02-12T07:53:37;103836.84;;;14.83;68.82
73628;BME280;61923;51.846;5.856;2023-02-12T07:56:07;103817.28;;;14.74;68.97
73628;BME280;61923;51.846;5.856;2023-02-12T07:58:33;103819.97;;;14.73;68.98
73628;BME280;61923;51.846;5.856;2023-02-12T08:00:59;103830.16;;;14.78;69.00
73628;BME280;61923;51.846;5.856;2023-02-12T08:03:27;103831.03;;;14.78;69.14
73628;BME280;61923;51.846;5.856;2023-02-12T08:05:52;103831.94;;;14.77;69.18
73628;BME280;61923;51.846;5.856;2023-02-12T08:08:18;103830.28;;;14.76;69.29
73628;BME280;61923;51.846;5.856;2023-02-12T08:10:43;103823.53;;;14.72;68.94
73628;BME280;61923;51.846;5.856;2023-02-12T08:13:08;103836.41;;;14.75;69.10
73628;BME280;61923;51.846;5.856;2023-02-12T08:15:34;103842.59;;;14.74;68.99
73628;BME280;61923;51.846;5.856;2023-02-12T08:17:59;103834.63;;;14.76;69.05
73628;BME280;61923;51.846;5.856;2023-02-12T08:20:25;103841.81;;;14.72;69.08
73628;BME280;61923;51.846;5.856;2023-02-12T08:22:51;103847.81;;;14.74;69.22
73628;BME280;61923;51.846;5.856;2023-02-12T08:25:16;103851.22;;;14.76;68.91
73628;BME280;61923;51.846;5.856;2023-02-12T08:27:42;103856.44;;;14.76;68.85
73628;BME280;61923;51.846;5.856;2023-02-12T08:30:07;103850.88;;;14.82;68.29
73628;BME280;61923;51.846;5.856;2023-02-12T08:32:33;103854.19;;;14.86;68.51
73628;BME280;61923;51.846;5.856;2023-02-12T08:34:58;103854.19;;;14.86;67.97
73628;BME280;61923;51.846;5.856;2023-02-12T08:37:23;103860.06;;;14.89;67.21
73628;BME280;61923;51.846;5.856;2023-02-12T08:39:49;103856.47;;;14.92;67.08
73628;BME280;61923;51.846;5.856;2023-02-12T08:42:14;103866.94;;;14.92;67.07
73628;BME280;61923;51.846;5.856;2023-02-12T08:44:41;103873.16;;;14.89;67.02
73628;BME280;61923;51.846;5.856;2023-02-12T08:47:07;103871.41;;;14.90;66.72
73628;BME280;61923;51.846;5.856;2023-02-12T08:49:40;103869.63;;;14.90;66.65
73628;BME280;61923;51.846;5.856;2023-02-12T08:52:17;103840.44;;;14.65;66.32
73628;BME280;61923;51.846;5.856;2023-02-12T08:54:46;103878.31;;;14.91;66.60
73628;BME280;61923;51.846;5.856;2023-02-12T08:57:14;103882.78;;;14.89;66.34
73628;BME280;61923;51.846;5.856;2023-02-12T08:59:39;103891.47;;;14.89;66.07
73628;BME280;61923;51.846;5.856;2023-02-12T09:02:09;103863.34;;;14.77;65.66
73628;BME280;61923;51.846;5.856;2023-02-12T09:04:35;103873.16;;;14.89;65.22
73628;BME280;61923;51.846;5.856;2023-02-12T09:07:00;103867.50;;;14.81;65.07
73628;BME280;61923;51.846;5.856;2023-02-12T09:09:26;103887.94;;;14.90;64.84
73628;BME280;61923;51.846;5.856;2023-02-12T09:11:51;103877.88;;;14.83;64.77
73628;BME280;61923;51.846;5.856;2023-02-12T09:14:18;103893.09;;;14.92;64.61
73628;BME280;61923;51.846;5.856;2023-02-12T09:16:48;103875.19;;;14.84;64.23
73628;BME280;61923;51.846;5.856;2023-02-12T09:19:14;103891.41;;;14.91;63.97
73628;BME280;61923;51.846;5.856;2023-02-12T09:21:40;103891.41;;;14.91;64.10
73628;BME280;61923;51.846;5.856;2023-02-12T09:24:06;103892.25;;;14.91;64.05
73628;BME280;61923;51.846;5.856;2023-02-12T09:26:31;103901.88;;;14.91;64.16
73628;BME280;61923;51.846;5.856;2023-02-12T09:28:57;103895.81;;;14.90;64.13
73628;BME280;61923;51.846;5.856;2023-02-12T09:31:25;103881.59;;;14.79;64.42
73628;BME280;61923;51.846;5.856;2023-02-12T09:33:57;103898.66;;;14.86;64.46
73628;BME280;61923;51.846;5.856;2023-02-12T09:36:23;103896.88;;;14.86;64.46
73628;BME280;61923;51.846;5.856;2023-02-12T09:38:49;103892.56;;;14.85;64.54
73628;BME280;61923;51.846;5.856;2023-02-12T09:41:45;103889.94;;;14.85;64.77
73628;BME280;61923;51.846;5.856;2023-02-12T09:47:07;103879.03;;;14.77;64.85
73628;BME280;61923;51.846;5.856;2023-02-12T09:50:02;103893.50;;;14.84;64.83
73628;BME280;61923;51.846;5.856;2023-02-12T09:52:33;103890.13;;;14.82;64.96
73628;BME280;61923;51.846;5.856;2023-02-12T09:54:59;103894.41;;;14.83;65.03
73628;BME280;61923;51.846;5.856;2023-02-12T09:57:32;103898.75;;;14.84;64.91
73628;BME280;61923;51.846;5.856;2023-02-12T10:00:06;103896.97;;;14.85;64.80
73628;BME280;61923;51.846;5.856;2023-02-12T10:02:34;103897.78;;;14.85;64.89
73628;BME280;61923;51.846;5.856;2023-02-12T10:05:00;103893.66;;;14.81;64.96
73628;BME280;61923;51.846;5.856;2023-02-12T10:08:12;103902.03;;;14.88;64.98
73628;BME280;61923;51.846;5.856;2023-02-12T10:13:07;103898.50;;;14.89;64.73
73628;BME280;61923;51.846;5.856;2023-02-12T10:18:50;103902.03;;;14.88;64.71
73628;BME280;61923;51.846;5.856;2023-02-12T10:21:32;103896.72;;;14.89;64.79
73628;BME280;61923;51.846;5.856;2023-02-12T10:24:13;103894.09;;;14.89;64.92
73628;BME280;61923;51.846;5.856;2023-02-12T10:26:49;103895.09;;;14.87;64.97
73628;BME280;61923;51.846;5.856;2023-02-12T10:29:21;103904.56;;;14.89;64.95
73628;BME280;61923;51.846;5.856;2023-02-12T10:31:52;103882.28;;;14.82;64.83
73628;BME280;61923;51.846;5.856;2023-02-12T10:34:24;103888.72;;;14.92;64.88
73628;BME280;61923;51.846;5.856;2023-02-12T10:36:51;103861.81;;;14.73;64.89
73628;BME280;61923;51.846;5.856;2023-02-12T10:39:25;103891.34;;;14.92;64.86
73628;BME280;61923;51.846;5.856;2023-02-12T10:42:08;103895.63;;;14.93;64.78
73628;BME280;61923;51.846;5.856;2023-02-12T10:44:34;103877.03;;;14.82;64.84
73628;BME280;61923;51.846;5.856;2023-02-12T10:47:00;103895.47;;;14.97;64.76
73628;BME280;61923;51.846;5.856;2023-02-12T10:49:30;103888.53;;;14.96;64.77
73628;BME280;61923;51.846;5.856;2023-02-12T10:52:14;103893.69;;;14.97;64.68
73628;BME280;61923;51.846;5.856;2023-02-12T10:54:43;103889.31;;;14.98;64.75
73628;BME280;61923;51.846;5.856;2023-02-12T10:59:35;103883.22;;;14.97;64.68
73628;BME280;61923;51.846;5.856;2023-02-12T11:02:01;103893.56;;;15.00;64.74
73628;BME280;61923;51.846;5.856;2023-02-12T11:04:29;103889.16;;;15.01;64.58
73628;BME280;61923;51.846;5.856;2023-02-12T11:06:58;103893.47;;;15.02;64.70
73628;BME280;61923;51.846;5.856;2023-02-12T11:09:35;103889.00;;;15.04;64.44
73628;BME280;61923;51.846;5.856;2023-02-12T11:14:40;103882.91;;;15.03;64.47
73628;BME280;61923;51.846;5.856;2023-02-12T11:17:22;103887.97;;;15.06;64.46
73628;BME280;61923;51.846;5.856;2023-02-12T11:20:21;103878.22;;;15.10;64.14
73628;BME280;61923;51.846;5.856;2023-02-12T11:25:16;103862.66;;;15.07;64.25
73628;BME280;61923;51.846;5.856;2023-02-12T11:27:41;103854.72;;;15.08;64.07
73628;BME280;61923;51.846;5.856;2023-02-12T11:32:40;103860.22;;;15.20;64.00
73628;BME280;61923;51.846;5.856;2023-02-12T11:35:16;103860.03;;;15.23;64.02
73628;BME280;61923;51.846;5.856;2023-02-12T11:37:48;103849.56;;;15.23;64.04
73628;BME280;61923;51.846;5.856;2023-02-12T11:40:21;103856.41;;;15.25;63.97
73628;BME280;61923;51.846;5.856;2023-02-12T11:42:51;103850.25;;;15.26;63.91
73628;BME280;61923;51.846;5.856;2023-02-12T11:45:19;103845.09;;;15.25;63.84
73628;BME280;61923;51.846;5.856;2023-02-12T11:47:46;103833.38;;;15.16;64.01
73628;BME280;61923;51.846;5.856;2023-02-12T11:50:33;103841.72;;;15.23;63.96
73628;BME280;61923;51.846;5.856;2023-02-12T11:53:01;103850.25;;;15.26;63.82
73628;BME280;61923;51.846;5.856;2023-02-12T11:55:31;103846.03;;;15.24;64.05
73628;BME280;61923;51.846;5.856;2023-02-12T11:58:24;103856.53;;;15.24;64.17
73628;BME280;61923;51.846;5.856;2023-02-12T12:00:59;103844.34;;;15.23;64.04
73628;BME280;61923;51.846;5.856;2023-02-12T12:03:30;103849.66;;;15.21;64.15
73628;BME280;61923;51.846;5.856;2023-02-12T12:06:10;103839.94;;;15.23;64.00
73628;BME280;61923;51.846;5.856;2023-02-12T12:11:37;103848.91;;;15.19;64.31
73628;BME280;61923;51.846;5.856;2023-02-12T12:19:51;103829.88;;;15.16;64.17
73628;BME280;61923;51.846;5.856;2023-02-12T12:25:24;103831.19;;;15.24;64.14
73628;BME280;61923;51.846;5.856;2023-02-12T12:33:42;103825.00;;;15.25;64.03
73628;BME280;61923;51.846;5.856;2023-02-12T12:55:36;103807.94;;;15.18;64.25
73628;BME280;61923;51.846;5.856;2023-02-12T13:05:57;103797.47;;;15.18;64.31
73628;BME280;61923;51.846;5.856;2023-02-12T13:14:54;103797.56;;;15.17;64.42
73628;BME280;61923;51.846;5.856;2023-02-12T13:17:38;103790.53;;;15.17;64.32
73628;BME280;61923;51.846;5.856;2023-02-12T13:23:02;103787.16;;;15.15;64.50
73628;BME280;61923;51.846;5.856;2023-02-12T13:28:34;103786.41;;;15.13;64.52
73628;BME280;61923;51.846;5.856;2023-02-12T13:31:03;103778.56;;;15.13;64.33
73628;BME280;61923;51.846;5.856;2023-02-12T13:33:52;103766.00;;;15.04;64.58
73628;BME280;61923;51.846;5.856;2023-02-12T13:36:19;103781.16;;;15.13;64.59
73628;BME280;61923;51.846;5.856;2023-02-12T13:38:59;103773.41;;;15.11;64.40
73628;BME280;61923;51.846;5.856;2023-02-12T13:41:26;103774.25;;;15.12;64.52
73628;BME280;61923;51.846;5.856;2023-02-12T13:44:05;103779.50;;;15.12;64.48
73628;BME280;61923;51.846;5.856;2023-02-12T13:56:58;103775.09;;;15.12;64.51
73628;BME280;61923;51.846;5.856;2023-02-12T14:04:45;103768.09;;;15.13;64.52
73628;BME280;61923;51.846;5.856;2023-02-12T14:07:19;103763.88;;;15.10;64.46
73628;BME280;61923;51.846;5.856;2023-02-12T14:09:59;103757.38;;;15.02;64.58
73628;BME280;61923;51.846;5.856;2023-02-12T14:15:10;103765.81;;;15.07;64.44
73628;BME280;61923;51.846;5.856;2023-02-12T14:17:55;103765.03;;;15.05;64.60
73628;BME280;61923;51.846;5.856;2023-02-12T14:20:29;103755.94;;;14.96;64.58
73628;BME280;61923;51.846;5.856;2023-02-12T14:22:59;103768.50;;;15.05;64.49
73628;BME280;61923;51.846;5.856;2023-02-12T14:25:36;103767.75;;;15.03;64.49
73628;BME280;61923;51.846;5.856;2023-02-12T14:30:37;103749.84;;;14.96;64.44
73628;BME280;61923;51.846;5.856;2023-02-12T14:40:51;103756.59;;;15.00;64.47
73628;BME280;61923;51.846;5.856;2023-02-12T14:45:46;103761.00;;;14.99;64.48
73628;BME280;61923;51.846;5.856;2023-02-12T14:48:38;103753.13;;;14.99;64.54
73628;BME280;61923;51.846;5.856;2023-02-12T14:51:05;103765.38;;;14.99;64.45
73628;BME280;61923;51.846;5.856;2023-02-12T14:53:38;103761.06;;;14.98;64.56
73628;BME280;61923;51.846;5.856;2023-02-12T14:56:04;103763.69;;;14.98;64.48
73628;BME280;61923;51.846;5.856;2023-02-12T14:58:34;103755.06;;;14.96;64.41
73628;BME280;61923;51.846;5.856;2023-02-12T15:01:01;103743.78;;;14.95;64.62
73628;BME280;61923;51.846;5.856;2023-02-12T15:03:39;103750.59;;;14.98;64.39
73628;BME280;61923;51.846;5.856;2023-02-12T15:08:39;103753.41;;;14.94;64.46
73628;BME280;61923;51.846;5.856;2023-02-12T15:11:27;103747.34;;;14.94;64.62
73628;BME280;61923;51.846;5.856;2023-02-12T15:14:23;103753.31;;;14.96;64.65
73628;BME280;61923;51.846;5.856;2023-02-12T15:22:21;103722.50;;;14.85;64.56
73628;BME280;61923;51.846;5.856;2023-02-12T15:24:47;103741.00;;;14.98;64.45
73628;BME280;61923;51.846;5.856;2023-02-12T15:27:14;103748.09;;;14.96;64.82
73628;BME280;61923;51.846;5.856;2023-02-12T15:29:42;103727.66;;;14.87;64.66
73628;BME280;61923;51.846;5.856;2023-02-12T15:32:17;103741.41;;;14.90;64.79
73628;BME280;61923;51.846;5.856;2023-02-12T15:34:47;103736.94;;;14.92;64.63